Agana Heights, GU

7:03 AM ChST on November 28, 2014 (GMT +1000)
Andersen Air Force Base | Change Station
CLOSE
Current Station
Airport
Location: Andersen AFB,
Elevation: 614 ft
Nearby Weather Stations

Elev 614 ft 13.58 °N, 144.93 °E | Updated 5 minutes ago

Mostly Cloudy
Mostly Cloudy
80 °F
Feels Like 86 °F
N
23
Wind Variable Wind from ENE
Gusts 28 mph

Today
High -- | Low -- °F
--% Chance of Precip.
Yesterday
High -- | Low -- °F
Precip. -- in
6:26 AM 5:51 PM
Waxing Crescent, 33% visible
Pressure 29.83 in
Visibility 10.0 miles
Clouds Scattered Clouds 1800 ft
Scattered Clouds 2400 ft
Mostly Cloudy 3300 ft
Mostly Cloudy 5000 ft
Heat Index 86 °F
Dew Point 75 °F
Humidity 83%
Rainfall 0.00 in
Snow Depth Not available.
UV 0 out of 12
Pollen Not available.
Air Quality Not available.
Flu Activity Not available.
METAR PGUA 272058Z AUTO 06020G24KT 10SM SCT018 SCT024 BKN033 BKN050 27/24 A2986 RMK AO2 PK WND 07028/55 CIG 024 RWY24L SLP102 T02690237 53008 $

More Conditions Fewer Conditions

Pressure 29.83 in
Visibility 10.0 miles
Clouds Scattered Clouds 1800 ft
Scattered Clouds 2400 ft
Mostly Cloudy 3300 ft
Mostly Cloudy 5000 ft
Heat Index 86 °F
Dew Point 75 °F
Humidity 83%
Rainfall 0.00 in
Snow Depth Not available.
UV 0 out of 12
Pollen Not available.
Air Quality Not available.
Flu Activity Not available.
METAR PGUA 272058Z AUTO 06020G24KT 10SM SCT018 SCT024 BKN033 BKN050 27/24 A2986 RMK AO2 PK WND 07028/55 CIG 024 RWY24L SLP102 T02690237 53008 $

More Conditions Fewer Conditions

10-Day Weather Forecast

Almanac

Astronomy

Nov. 28, 2014 Rise Set
Actual Time
Civil Twilight
Nautical Twilight
Astronomical Twilight
Moon
Length of Visible Light
Length of Day
Tomorrow will be .
, % of the Moon is Illuminated

Today's Extremes

State Highs State Lows

Community

WunderPhotos

Upload Photos

1,774,104 photos uploaded!

WunderBlogs® & News

Nearby

Air Quality

  Air Quality AQ Index Pollutant
Not available.

Snow Depth

Station Depth Elevation

Earthquake Activity

City Distance Mag. Time & Date
Minimum magnitude displayed is 2.5.

Coastal Water Temperatures

Place Temperature

Nearby Weather Stations